sensor_id;sensor_type;location;lat;lon;timestamp;P1;durP1;ratioP1;P2;durP2;ratioP2
32329;SDS011;18807;52.434;13.238;2023-05-10T00:07:25;6.30;;;5.07;;
32329;SDS011;18807;52.434;13.238;2023-05-10T00:14:59;7.07;;;5.05;;
32329;SDS011;18807;52.434;13.238;2023-05-10T00:22:34;7.15;;;5.50;;
32329;SDS011;18807;52.434;13.238;2023-05-10T00:30:08;8.45;;;5.03;;
32329;SDS011;18807;52.434;13.238;2023-05-10T00:37:45;6.75;;;4.82;;
32329;SDS011;18807;52.434;13.238;2023-05-10T00:45:19;6.30;;;5.00;;
32329;SDS011;18807;52.434;13.238;2023-05-10T00:52:54;8.00;;;5.27;;
32329;SDS011;18807;52.434;13.238;2023-05-10T01:00:29;9.55;;;5.78;;
32329;SDS011;18807;52.434;13.238;2023-05-10T01:08:04;5.97;;;5.00;;
32329;SDS011;18807;52.434;13.238;2023-05-10T01:15:39;7.53;;;5.30;;
32329;SDS011;18807;52.434;13.238;2023-05-10T01:23:21;8.43;;;5.68;;
32329;SDS011;18807;52.434;13.238;2023-05-10T01:31:18;9.15;;;5.50;;
32329;SDS011;18807;52.434;13.238;2023-05-10T01:39:07;7.47;;;5.93;;
32329;SDS011;18807;52.434;13.238;2023-05-10T01:54:42;8.07;;;7.07;;
32329;SDS011;18807;52.434;13.238;2023-05-10T02:02:44;7.32;;;5.55;;
32329;SDS011;18807;52.434;13.238;2023-05-10T02:10:21;6.75;;;5.63;;
32329;SDS011;18807;52.434;13.238;2023-05-10T02:17:55;7.80;;;6.13;;
32329;SDS011;18807;52.434;13.238;2023-05-10T02:25:33;8.15;;;5.80;;
32329;SDS011;18807;52.434;13.238;2023-05-10T02:33:09;8.00;;;5.75;;
32329;SDS011;18807;52.434;13.238;2023-05-10T02:48:19;11.15;;;7.07;;
32329;SDS011;18807;52.434;13.238;2023-05-10T02:55:56;14.80;;;8.13;;
32329;SDS011;18807;52.434;13.238;2023-05-10T03:03:32;8.98;;;5.97;;
32329;SDS011;18807;52.434;13.238;2023-05-10T03:11:13;9.60;;;6.77;;
32329;SDS011;18807;52.434;13.238;2023-05-10T03:18:56;11.38;;;6.07;;
32329;SDS011;18807;52.434;13.238;2023-05-10T03:26:39;10.00;;;6.18;;
32329;SDS011;18807;52.434;13.238;2023-05-10T03:34:14;8.80;;;6.32;;
32329;SDS011;18807;52.434;13.238;2023-05-10T03:41:50;9.90;;;6.80;;
32329;SDS011;18807;52.434;13.238;2023-05-10T03:49:23;7.78;;;5.38;;
32329;SDS011;18807;52.434;13.238;2023-05-10T03:56:59;7.43;;;5.75;;
32329;SDS011;18807;52.434;13.238;2023-05-10T04:04:34;8.65;;;5.90;;
32329;SDS011;18807;52.434;13.238;2023-05-10T04:12:27;8.50;;;5.78;;
32329;SDS011;18807;52.434;13.238;2023-05-10T04:20:18;9.63;;;5.85;;
32329;SDS011;18807;52.434;13.238;2023-05-10T04:27:53;9.67;;;5.97;;
32329;SDS011;18807;52.434;13.238;2023-05-10T04:35:27;12.75;;;5.07;;
32329;SDS011;18807;52.434;13.238;2023-05-10T04:43:03;9.00;;;6.03;;
32329;SDS011;18807;52.434;13.238;2023-05-10T04:50:37;7.43;;;5.43;;
32329;SDS011;18807;52.434;13.238;2023-05-10T04:58:31;10.50;;;5.43;;
32329;SDS011;18807;52.434;13.238;2023-05-10T05:06:05;8.65;;;5.47;;
32329;SDS011;18807;52.434;13.238;2023-05-10T05:13:41;7.37;;;4.77;;
32329;SDS011;18807;52.434;13.238;2023-05-10T05:21:15;7.38;;;4.68;;
32329;SDS011;18807;52.434;13.238;2023-05-10T05:36:26;7.57;;;4.30;;
32329;SDS011;18807;52.434;13.238;2023-05-10T05:44:02;8.00;;;4.05;;
32329;SDS011;18807;52.434;13.238;2023-05-10T05:51:36;6.57;;;3.65;;
32329;SDS011;18807;52.434;13.238;2023-05-10T05:59:11;6.93;;;3.90;;
32329;SDS011;18807;52.434;13.238;2023-05-10T06:07:03;6.65;;;3.95;;
32329;SDS011;18807;52.434;13.238;2023-05-10T06:14:38;6.47;;;3.50;;
32329;SDS011;18807;52.434;13.238;2023-05-10T06:22:12;5.65;;;3.53;;
32329;SDS011;18807;52.434;13.238;2023-05-10T06:29:47;4.07;;;3.15;;
32329;SDS011;18807;52.434;13.238;2023-05-10T06:37:27;5.15;;;2.70;;
32329;SDS011;18807;52.434;13.238;2023-05-10T06:45:03;6.65;;;3.30;;
32329;SDS011;18807;52.434;13.238;2023-05-10T06:52:38;5.22;;;3.17;;
32329;SDS011;18807;52.434;13.238;2023-05-10T07:00:14;4.47;;;3.08;;
32329;SDS011;18807;52.434;13.238;2023-05-10T07:07:49;4.05;;;2.92;;
32329;SDS011;18807;52.434;13.238;2023-05-10T07:15:25;5.57;;;2.95;;
32329;SDS011;18807;52.434;13.238;2023-05-10T07:22:59;4.20;;;2.72;;
32329;SDS011;18807;52.434;13.238;2023-05-10T07:30:35;5.53;;;2.73;;
32329;SDS011;18807;52.434;13.238;2023-05-10T07:38:09;5.50;;;2.85;;
32329;SDS011;18807;52.434;13.238;2023-05-10T07:45:45;5.97;;;2.97;;
32329;SDS011;18807;52.434;13.238;2023-05-10T07:53:19;2.75;;;2.33;;
32329;SDS011;18807;52.434;13.238;2023-05-10T08:00:55;5.70;;;2.83;;
32329;SDS011;18807;52.434;13.238;2023-05-10T08:08:29;4.10;;;2.65;;
32329;SDS011;18807;52.434;13.238;2023-05-10T08:16:05;4.03;;;2.63;;
32329;SDS011;18807;52.434;13.238;2023-05-10T08:23:39;6.47;;;2.85;;
32329;SDS011;18807;52.434;13.238;2023-05-10T08:31:15;5.33;;;2.80;;
32329;SDS011;18807;52.434;13.238;2023-05-10T08:38:49;9.25;;;3.00;;
32329;SDS011;18807;52.434;13.238;2023-05-10T08:46:25;4.25;;;2.72;;
32329;SDS011;18807;52.434;13.238;2023-05-10T08:54:01;3.25;;;2.95;;
32329;SDS011;18807;52.434;13.238;2023-05-10T09:01:37;3.90;;;2.70;;
32329;SDS011;18807;52.434;13.238;2023-05-10T09:09:12;8.63;;;3.13;;
32329;SDS011;18807;52.434;13.238;2023-05-10T09:16:48;5.13;;;4.15;;
32329;SDS011;18807;52.434;13.238;2023-05-10T09:24:25;3.90;;;3.05;;
32329;SDS011;18807;52.434;13.238;2023-05-10T09:32:01;5.75;;;3.60;;
32329;SDS011;18807;52.434;13.238;2023-05-10T09:39:52;4.57;;;2.70;;
32329;SDS011;18807;52.434;13.238;2023-05-10T09:47:47;5.85;;;3.95;;
32329;SDS011;18807;52.434;13.238;2023-05-10T09:55:22;6.25;;;4.28;;
32329;SDS011;18807;52.434;13.238;2023-05-10T10:02:59;4.20;;;3.30;;
32329;SDS011;18807;52.434;13.238;2023-05-10T10:10:33;3.85;;;2.58;;
32329;SDS011;18807;52.434;13.238;2023-05-10T10:18:09;5.17;;;2.80;;
32329;SDS011;18807;52.434;13.238;2023-05-10T10:26:04;2.58;;;2.22;;
32329;SDS011;18807;52.434;13.238;2023-05-10T10:41:28;4.40;;;2.40;;
32329;SDS011;18807;52.434;13.238;2023-05-10T10:49:10;4.35;;;2.90;;
32329;SDS011;18807;52.434;13.238;2023-05-10T10:56:44;5.22;;;2.65;;
32329;SDS011;18807;52.434;13.238;2023-05-10T11:04:50;7.15;;;3.00;;
32329;SDS011;18807;52.434;13.238;2023-05-10T11:12:24;2.65;;;2.45;;
32329;SDS011;18807;52.434;13.238;2023-05-10T11:20:17;4.32;;;2.70;;
32329;SDS011;18807;52.434;13.238;2023-05-10T11:27:55;6.32;;;2.92;;
32329;SDS011;18807;52.434;13.238;2023-05-10T11:35:31;2.93;;;2.23;;
32329;SDS011;18807;52.434;13.238;2023-05-10T11:43:14;3.10;;;2.50;;
32329;SDS011;18807;52.434;13.238;2023-05-10T11:50:50;3.27;;;2.63;;
32329;SDS011;18807;52.434;13.238;2023-05-10T11:58:25;7.00;;;2.75;;
32329;SDS011;18807;52.434;13.238;2023-05-10T12:06:18;3.40;;;2.45;;
32329;SDS011;18807;52.434;13.238;2023-05-10T12:13:52;3.83;;;2.35;;
32329;SDS011;18807;52.434;13.238;2023-05-10T12:21:29;2.97;;;2.38;;
32329;SDS011;18807;52.434;13.238;2023-05-10T12:29:13;3.65;;;2.50;;
32329;SDS011;18807;52.434;13.238;2023-05-10T12:44:25;4.32;;;2.40;;
32329;SDS011;18807;52.434;13.238;2023-05-10T12:52:18;3.10;;;2.67;;
32329;SDS011;18807;52.434;13.238;2023-05-10T12:59:52;4.82;;;2.95;;
32329;SDS011;18807;52.434;13.238;2023-05-10T13:07:28;2.60;;;2.40;;
32329;SDS011;18807;52.434;13.238;2023-05-10T13:15:02;3.38;;;2.67;;
32329;SDS011;18807;52.434;13.238;2023-05-10T13:22:38;3.63;;;2.67;;
32329;SDS011;18807;52.434;13.238;2023-05-10T13:30:12;5.90;;;2.60;;
32329;SDS011;18807;52.434;13.238;2023-05-10T13:37:48;3.35;;;2.85;;
32329;SDS011;18807;52.434;13.238;2023-05-10T13:45:23;3.42;;;2.40;;
32329;SDS011;18807;52.434;13.238;2023-05-10T13:52:59;2.92;;;2.70;;
32329;SDS011;18807;52.434;13.238;2023-05-10T14:00:33;3.33;;;2.78;;
32329;SDS011;18807;52.434;13.238;2023-05-10T14:08:08;4.05;;;2.85;;
32329;SDS011;18807;52.434;13.238;2023-05-10T14:15:43;3.25;;;2.67;;
32329;SDS011;18807;52.434;13.238;2023-05-10T14:23:18;4.03;;;3.00;;
32329;SDS011;18807;52.434;13.238;2023-05-10T14:31:13;4.95;;;2.90;;
32329;SDS011;18807;52.434;13.238;2023-05-10T14:38:50;3.58;;;2.70;;
32329;SDS011;18807;52.434;13.238;2023-05-10T14:46:24;5.10;;;2.72;;
32329;SDS011;18807;52.434;13.238;2023-05-10T14:54:00;3.87;;;2.70;;
32329;SDS011;18807;52.434;13.238;2023-05-10T15:01:34;3.67;;;3.20;;
32329;SDS011;18807;52.434;13.238;2023-05-10T15:09:12;4.07;;;3.10;;
32329;SDS011;18807;52.434;13.238;2023-05-10T15:16:46;6.68;;;2.92;;
32329;SDS011;18807;52.434;13.238;2023-05-10T15:24:21;4.03;;;3.00;;
32329;SDS011;18807;52.434;13.238;2023-05-10T15:31:56;3.63;;;2.80;;
32329;SDS011;18807;52.434;13.238;2023-05-10T15:39:31;4.33;;;3.27;;
32329;SDS011;18807;52.434;13.238;2023-05-10T15:47:05;3.47;;;3.03;;
32329;SDS011;18807;52.434;13.238;2023-05-10T15:54:41;4.60;;;3.77;;
32329;SDS011;18807;52.434;13.238;2023-05-10T16:02:15;7.53;;;5.13;;
32329;SDS011;18807;52.434;13.238;2023-05-10T16:09:52;5.60;;;5.05;;
32329;SDS011;18807;52.434;13.238;2023-05-10T16:17:26;7.25;;;4.75;;
32329;SDS011;18807;52.434;13.238;2023-05-10T16:25:02;5.82;;;4.35;;
32329;SDS011;18807;52.434;13.238;2023-05-10T16:32:36;4.70;;;4.15;;
32329;SDS011;18807;52.434;13.238;2023-05-10T16:40:12;6.30;;;4.63;;
32329;SDS011;18807;52.434;13.238;2023-05-10T16:47:46;6.43;;;4.65;;
32329;SDS011;18807;52.434;13.238;2023-05-10T16:55:22;4.43;;;4.00;;
32329;SDS011;18807;52.434;13.238;2023-05-10T17:02:57;5.60;;;4.80;;
32329;SDS011;18807;52.434;13.238;2023-05-10T17:10:33;6.07;;;4.30;;
32329;SDS011;18807;52.434;13.238;2023-05-10T17:18:07;7.40;;;5.38;;
32329;SDS011;18807;52.434;13.238;2023-05-10T17:25:44;5.28;;;4.65;;
32329;SDS011;18807;52.434;13.238;2023-05-10T17:33:18;6.38;;;5.25;;
32329;SDS011;18807;52.434;13.238;2023-05-10T17:40:53;6.90;;;4.80;;
32329;SDS011;18807;52.434;13.238;2023-05-10T17:48:27;4.50;;;4.10;;
32329;SDS011;18807;52.434;13.238;2023-05-10T17:56:03;8.70;;;4.93;;
32329;SDS011;18807;52.434;13.238;2023-05-10T18:03:37;6.53;;;4.60;;
32329;SDS011;18807;52.434;13.238;2023-05-10T18:11:12;7.87;;;5.47;;
32329;SDS011;18807;52.434;13.238;2023-05-10T18:18:47;6.07;;;4.45;;
32329;SDS011;18807;52.434;13.238;2023-05-10T18:26:22;5.23;;;4.53;;
32329;SDS011;18807;52.434;13.238;2023-05-10T18:33:57;4.18;;;3.78;;
32329;SDS011;18807;52.434;13.238;2023-05-10T18:41:32;5.15;;;4.65;;
32329;SDS011;18807;52.434;13.238;2023-05-10T18:49:06;7.72;;;4.88;;
32329;SDS011;18807;52.434;13.238;2023-05-10T18:56:42;4.30;;;3.90;;
32329;SDS011;18807;52.434;13.238;2023-05-10T19:04:16;5.65;;;4.70;;
32329;SDS011;18807;52.434;13.238;2023-05-10T19:11:52;5.65;;;4.13;;
32329;SDS011;18807;52.434;13.238;2023-05-10T19:27:22;5.35;;;4.82;;
32329;SDS011;18807;52.434;13.238;2023-05-10T19:35:13;5.15;;;4.55;;
32329;SDS011;18807;52.434;13.238;2023-05-10T19:42:49;5.73;;;5.17;;
32329;SDS011;18807;52.434;13.238;2023-05-10T19:50:24;8.43;;;5.63;;
32329;SDS011;18807;52.434;13.238;2023-05-10T19:58:00;7.97;;;5.50;;
32329;SDS011;18807;52.434;13.238;2023-05-10T20:05:34;5.40;;;4.90;;
32329;SDS011;18807;52.434;13.238;2023-05-10T20:13:09;5.28;;;4.78;;
32329;SDS011;18807;52.434;13.238;2023-05-10T20:20:43;4.53;;;4.13;;
32329;SDS011;18807;52.434;13.238;2023-05-10T20:35:56;5.43;;;4.78;;
32329;SDS011;18807;52.434;13.238;2023-05-10T20:43:32;4.90;;;4.03;;
32329;SDS011;18807;52.434;13.238;2023-05-10T20:51:06;4.35;;;3.92;;
32329;SDS011;18807;52.434;13.238;2023-05-10T20:58:41;5.63;;;3.65;;
32329;SDS011;18807;52.434;13.238;2023-05-10T21:06:15;6.60;;;4.80;;
32329;SDS011;18807;52.434;13.238;2023-05-10T21:13:51;4.97;;;4.27;;
32329;SDS011;18807;52.434;13.238;2023-05-10T21:21:25;4.30;;;3.90;;
32329;SDS011;18807;52.434;13.238;2023-05-10T21:29:17;4.60;;;4.15;;
32329;SDS011;18807;52.434;13.238;2023-05-10T21:36:52;4.35;;;3.95;;
32329;SDS011;18807;52.434;13.238;2023-05-10T21:44:28;4.43;;;4.03;;
32329;SDS011;18807;52.434;13.238;2023-05-10T21:52:03;5.90;;;4.05;;
32329;SDS011;18807;52.434;13.238;2023-05-10T21:59:39;3.93;;;3.53;;
32329;SDS011;18807;52.434;13.238;2023-05-10T22:07:13;4.30;;;3.90;;
32329;SDS011;18807;52.434;13.238;2023-05-10T22:22:41;4.75;;;4.15;;
32329;SDS011;18807;52.434;13.238;2023-05-10T22:30:16;4.47;;;3.90;;
32329;SDS011;18807;52.434;13.238;2023-05-10T22:37:51;4.47;;;3.97;;
32329;SDS011;18807;52.434;13.238;2023-05-10T22:45:27;5.68;;;4.35;;
32329;SDS011;18807;52.434;13.238;2023-05-10T22:53:01;5.50;;;4.63;;
32329;SDS011;18807;52.434;13.238;2023-05-10T23:00:36;4.75;;;4.35;;
32329;SDS011;18807;52.434;13.238;2023-05-10T23:08:10;4.90;;;4.40;;
32329;SDS011;18807;52.434;13.238;2023-05-10T23:15:46;5.53;;;4.40;;
32329;SDS011;18807;52.434;13.238;2023-05-10T23:23:20;4.82;;;4.43;;
32329;SDS011;18807;52.434;13.238;2023-05-10T23:30:55;6.67;;;4.53;;
32329;SDS011;18807;52.434;13.238;2023-05-10T23:38:30;5.28;;;4.68;;
32329;SDS011;18807;52.434;13.238;2023-05-10T23:46:06;5.60;;;4.63;;
32329;SDS011;18807;52.434;13.238;2023-05-10T23:53:40;4.95;;;4.45;;
